sensor_id;sensor_type;location;lat;lon;timestamp;P1;durP1;ratioP1;P2;durP2;ratioP2
26806;SDS011;14380;49.910;6.792;2022-12-10T00:01:04;28.33;;;18.48;;
26806;SDS011;14380;49.910;6.792;2022-12-10T00:03:32;29.75;;;18.10;;
26806;SDS011;14380;49.910;6.792;2022-12-10T00:05:59;31.70;;;18.48;;
26806;SDS011;14380;49.910;6.792;2022-12-10T00:08:27;31.63;;;18.63;;
26806;SDS011;14380;49.910;6.792;2022-12-10T00:10:53;30.77;;;18.92;;
26806;SDS011;14380;49.910;6.792;2022-12-10T00:13:20;26.63;;;17.48;;
26806;SDS011;14380;49.910;6.792;2022-12-10T00:15:49;28.60;;;17.90;;
26806;SDS011;14380;49.910;6.792;2022-12-10T00:18:16;29.35;;;18.15;;
26806;SDS011;14380;49.910;6.792;2022-12-10T00:20:42;26.70;;;17.65;;
26806;SDS011;14380;49.910;6.792;2022-12-10T00:23:09;25.55;;;17.85;;
26806;SDS011;14380;49.910;6.792;2022-12-10T00:25:39;26.50;;;17.67;;
26806;SDS011;14380;49.910;6.792;2022-12-10T00:28:05;28.40;;;17.42;;
26806;SDS011;14380;49.910;6.792;2022-12-10T00:30:32;26.73;;;17.98;;
26806;SDS011;14380;49.910;6.792;2022-12-10T00:33:00;25.48;;;16.85;;
26806;SDS011;14380;49.910;6.792;2022-12-10T00:35:27;26.52;;;16.25;;
26806;SDS011;14380;49.910;6.792;2022-12-10T00:37:54;27.70;;;17.00;;
26806;SDS011;14380;49.910;6.792;2022-12-10T00:40:21;29.35;;;17.45;;
26806;SDS011;14380;49.910;6.792;2022-12-10T00:42:48;29.25;;;17.27;;
26806;SDS011;14380;49.910;6.792;2022-12-10T00:45:14;29.38;;;16.98;;
26806;SDS011;14380;49.910;6.792;2022-12-10T00:47:41;26.90;;;17.30;;
26806;SDS011;14380;49.910;6.792;2022-12-10T00:50:09;31.52;;;18.42;;
26806;SDS011;14380;49.910;6.792;2022-12-10T00:52:35;27.20;;;16.80;;
26806;SDS011;14380;49.910;6.792;2022-12-10T00:55:02;23.63;;;15.63;;
26806;SDS011;14380;49.910;6.792;2022-12-10T00:57:29;28.92;;;18.45;;
26806;SDS011;14380;49.910;6.792;2022-12-10T00:59:56;28.88;;;17.58;;
26806;SDS011;14380;49.910;6.792;2022-12-10T01:02:22;29.98;;;18.75;;
26806;SDS011;14380;49.910;6.792;2022-12-10T01:04:51;26.63;;;16.80;;
26806;SDS011;14380;49.910;6.792;2022-12-10T01:07:21;28.65;;;18.38;;
26806;SDS011;14380;49.910;6.792;2022-12-10T01:09:48;29.08;;;17.05;;
26806;SDS011;14380;49.910;6.792;2022-12-10T01:12:14;30.10;;;18.17;;
26806;SDS011;14380;49.910;6.792;2022-12-10T01:14:41;24.75;;;16.35;;
26806;SDS011;14380;49.910;6.792;2022-12-10T01:17:08;22.65;;;15.13;;
26806;SDS011;14380;49.910;6.792;2022-12-10T01:19:34;26.83;;;15.38;;
26806;SDS011;14380;49.910;6.792;2022-12-10T01:22:01;24.45;;;15.73;;
26806;SDS011;14380;49.910;6.792;2022-12-10T01:24:30;18.58;;;12.98;;
26806;SDS011;14380;49.910;6.792;2022-12-10T01:26:57;21.85;;;14.20;;
26806;SDS011;14380;49.910;6.792;2022-12-10T01:29:24;22.13;;;13.85;;
26806;SDS011;14380;49.910;6.792;2022-12-10T01:31:54;23.40;;;12.82;;
26806;SDS011;14380;49.910;6.792;2022-12-10T01:34:22;17.92;;;12.60;;
26806;SDS011;14380;49.910;6.792;2022-12-10T01:36:50;25.73;;;15.68;;
26806;SDS011;14380;49.910;6.792;2022-12-10T01:39:18;34.92;;;17.63;;
26806;SDS011;14380;49.910;6.792;2022-12-10T01:41:49;27.10;;;16.42;;
26806;SDS011;14380;49.910;6.792;2022-12-10T01:47:24;24.48;;;14.20;;
26806;SDS011;14380;49.910;6.792;2022-12-10T01:49:51;21.95;;;13.77;;
26806;SDS011;14380;49.910;6.792;2022-12-10T01:52:17;21.27;;;13.20;;
26806;SDS011;14380;49.910;6.792;2022-12-10T01:54:45;17.98;;;12.02;;
26806;SDS011;14380;49.910;6.792;2022-12-10T01:57:14;15.13;;;11.02;;
26806;SDS011;14380;49.910;6.792;2022-12-10T01:59:43;16.65;;;10.93;;
26806;SDS011;14380;49.910;6.792;2022-12-10T02:02:14;17.23;;;11.20;;
26806;SDS011;14380;49.910;6.792;2022-12-10T02:04:51;20.98;;;12.68;;
26806;SDS011;14380;49.910;6.792;2022-12-10T02:07:29;16.50;;;11.13;;
26806;SDS011;14380;49.910;6.792;2022-12-10T02:10:06;17.08;;;11.02;;
26806;SDS011;14380;49.910;6.792;2022-12-10T02:12:44;17.25;;;11.43;;
26806;SDS011;14380;49.910;6.792;2022-12-10T02:15:15;17.35;;;12.05;;
26806;SDS011;14380;49.910;6.792;2022-12-10T02:17:48;24.77;;;16.10;;
26806;SDS011;14380;49.910;6.792;2022-12-10T02:20:26;23.45;;;13.65;;
26806;SDS011;14380;49.910;6.792;2022-12-10T02:22:57;21.83;;;13.90;;
26806;SDS011;14380;49.910;6.792;2022-12-10T02:25:31;23.20;;;14.38;;
26806;SDS011;14380;49.910;6.792;2022-12-10T02:28:05;20.02;;;13.32;;
26806;SDS011;14380;49.910;6.792;2022-12-10T02:30:40;18.83;;;11.73;;
26806;SDS011;14380;49.910;6.792;2022-12-10T02:33:11;22.60;;;13.77;;
26806;SDS011;14380;49.910;6.792;2022-12-10T02:35:39;21.33;;;12.82;;
26806;SDS011;14380;49.910;6.792;2022-12-10T02:38:09;23.33;;;13.25;;
26806;SDS011;14380;49.910;6.792;2022-12-10T02:40:38;19.67;;;13.10;;
26806;SDS011;14380;49.910;6.792;2022-12-10T02:43:10;21.48;;;13.85;;
26806;SDS011;14380;49.910;6.792;2022-12-10T02:45:39;21.63;;;14.18;;
26806;SDS011;14380;49.910;6.792;2022-12-10T02:48:08;24.15;;;14.27;;
26806;SDS011;14380;49.910;6.792;2022-12-10T02:50:35;28.98;;;14.68;;
26806;SDS011;14380;49.910;6.792;2022-12-10T02:53:02;21.27;;;14.23;;
26806;SDS011;14380;49.910;6.792;2022-12-10T02:55:29;25.58;;;15.52;;
26806;SDS011;14380;49.910;6.792;2022-12-10T02:58:17;23.27;;;15.23;;
26806;SDS011;14380;49.910;6.792;2022-12-10T03:00:55;27.02;;;15.93;;
26806;SDS011;14380;49.910;6.792;2022-12-10T03:03:28;26.95;;;16.35;;
26806;SDS011;14380;49.910;6.792;2022-12-10T03:06:06;26.80;;;17.40;;
26806;SDS011;14380;49.910;6.792;2022-12-10T03:08:40;24.55;;;16.42;;
26806;SDS011;14380;49.910;6.792;2022-12-10T03:11:13;23.45;;;15.20;;
26806;SDS011;14380;49.910;6.792;2022-12-10T03:13:45;27.80;;;16.92;;
26806;SDS011;14380;49.910;6.792;2022-12-10T03:16:19;27.67;;;16.30;;
26806;SDS011;14380;49.910;6.792;2022-12-10T03:18:48;26.80;;;16.27;;
26806;SDS011;14380;49.910;6.792;2022-12-10T03:21:19;25.98;;;15.82;;
26806;SDS011;14380;49.910;6.792;2022-12-10T03:23:46;25.13;;;15.55;;
26806;SDS011;14380;49.910;6.792;2022-12-10T03:26:14;24.20;;;15.55;;
26806;SDS011;14380;49.910;6.792;2022-12-10T03:28:44;26.85;;;17.17;;
26806;SDS011;14380;49.910;6.792;2022-12-10T03:31:15;28.35;;;17.23;;
26806;SDS011;14380;49.910;6.792;2022-12-10T03:33:45;24.65;;;16.08;;
26806;SDS011;14380;49.910;6.792;2022-12-10T03:36:12;27.45;;;16.80;;
26806;SDS011;14380;49.910;6.792;2022-12-10T03:38:40;27.58;;;16.23;;
26806;SDS011;14380;49.910;6.792;2022-12-10T03:41:08;27.75;;;16.92;;
26806;SDS011;14380;49.910;6.792;2022-12-10T03:43:35;26.50;;;15.43;;
26806;SDS011;14380;49.910;6.792;2022-12-10T03:46:01;23.42;;;15.43;;
26806;SDS011;14380;49.910;6.792;2022-12-10T03:48:28;28.77;;;16.00;;
26806;SDS011;14380;49.910;6.792;2022-12-10T03:50:56;26.08;;;16.70;;
26806;SDS011;14380;49.910;6.792;2022-12-10T03:53:23;25.90;;;15.15;;
26806;SDS011;14380;49.910;6.792;2022-12-10T03:55:50;28.33;;;16.92;;
26806;SDS011;14380;49.910;6.792;2022-12-10T03:58:16;26.17;;;16.58;;
26806;SDS011;14380;49.910;6.792;2022-12-10T04:00:42;28.05;;;16.63;;
26806;SDS011;14380;49.910;6.792;2022-12-10T04:03:09;25.63;;;16.92;;
26806;SDS011;14380;49.910;6.792;2022-12-10T04:05:36;29.52;;;17.95;;
26806;SDS011;14380;49.910;6.792;2022-12-10T04:08:04;28.40;;;17.67;;
26806;SDS011;14380;49.910;6.792;2022-12-10T04:10:34;25.38;;;16.55;;
26806;SDS011;14380;49.910;6.792;2022-12-10T04:13:01;27.63;;;16.98;;
26806;SDS011;14380;49.910;6.792;2022-12-10T04:15:45;29.88;;;17.67;;
26806;SDS011;14380;49.910;6.792;2022-12-10T04:18:29;26.02;;;17.23;;
26806;SDS011;14380;49.910;6.792;2022-12-10T04:20:56;31.15;;;18.05;;
26806;SDS011;14380;49.910;6.792;2022-12-10T04:23:41;25.35;;;15.70;;
26806;SDS011;14380;49.910;6.792;2022-12-10T04:26:25;27.15;;;16.98;;
26806;SDS011;14380;49.910;6.792;2022-12-10T04:29:09;28.10;;;15.35;;
26806;SDS011;14380;49.910;6.792;2022-12-10T04:31:36;25.42;;;16.48;;
26806;SDS011;14380;49.910;6.792;2022-12-10T04:34:02;29.08;;;16.67;;
26806;SDS011;14380;49.910;6.792;2022-12-10T04:36:29;25.35;;;16.27;;
26806;SDS011;14380;49.910;6.792;2022-12-10T04:38:57;25.90;;;16.98;;
26806;SDS011;14380;49.910;6.792;2022-12-10T04:41:23;24.75;;;14.85;;
26806;SDS011;14380;49.910;6.792;2022-12-10T04:43:50;26.75;;;16.60;;
26806;SDS011;14380;49.910;6.792;2022-12-10T04:46:20;29.73;;;17.25;;
26806;SDS011;14380;49.910;6.792;2022-12-10T04:48:48;29.40;;;17.33;;
26806;SDS011;14380;49.910;6.792;2022-12-10T04:51:15;31.00;;;17.85;;
26806;SDS011;14380;49.910;6.792;2022-12-10T04:53:41;29.00;;;17.13;;
26806;SDS011;14380;49.910;6.792;2022-12-10T04:56:09;28.25;;;16.80;;
26806;SDS011;14380;49.910;6.792;2022-12-10T04:58:36;29.63;;;17.13;;
26806;SDS011;14380;49.910;6.792;2022-12-10T05:01:03;27.85;;;16.30;;
26806;SDS011;14380;49.910;6.792;2022-12-10T05:03:30;27.45;;;17.30;;
26806;SDS011;14380;49.910;6.792;2022-12-10T05:06:00;25.75;;;16.65;;
26806;SDS011;14380;49.910;6.792;2022-12-10T05:08:31;27.55;;;17.73;;
26806;SDS011;14380;49.910;6.792;2022-12-10T05:11:07;30.00;;;18.20;;
26806;SDS011;14380;49.910;6.792;2022-12-10T05:13:42;29.58;;;18.48;;
26806;SDS011;14380;49.910;6.792;2022-12-10T05:16:15;33.37;;;18.00;;
26806;SDS011;14380;49.910;6.792;2022-12-10T05:18:49;35.95;;;19.52;;
26806;SDS011;14380;49.910;6.792;2022-12-10T05:21:22;28.08;;;16.83;;
26806;SDS011;14380;49.910;6.792;2022-12-10T05:24:17;27.55;;;17.10;;
26806;SDS011;14380;49.910;6.792;2022-12-10T05:26:46;31.85;;;18.42;;
26806;SDS011;14380;49.910;6.792;2022-12-10T05:29:24;30.33;;;18.45;;
26806;SDS011;14380;49.910;6.792;2022-12-10T05:31:55;33.78;;;20.17;;
26806;SDS011;14380;49.910;6.792;2022-12-10T05:34:29;34.90;;;20.45;;
26806;SDS011;14380;49.910;6.792;2022-12-10T05:37:00;41.53;;;24.40;;
26806;SDS011;14380;49.910;6.792;2022-12-10T05:39:33;32.63;;;19.13;;
26806;SDS011;14380;49.910;6.792;2022-12-10T05:42:00;26.40;;;16.55;;
26806;SDS011;14380;49.910;6.792;2022-12-10T05:44:28;27.00;;;16.92;;
26806;SDS011;14380;49.910;6.792;2022-12-10T05:46:56;27.98;;;17.25;;
26806;SDS011;14380;49.910;6.792;2022-12-10T05:49:23;30.10;;;18.15;;
26806;SDS011;14380;49.910;6.792;2022-12-10T05:51:50;29.05;;;17.77;;
26806;SDS011;14380;49.910;6.792;2022-12-10T05:54:18;31.98;;;19.58;;
26806;SDS011;14380;49.910;6.792;2022-12-10T05:56:44;31.30;;;18.25;;
26806;SDS011;14380;49.910;6.792;2022-12-10T05:59:11;29.38;;;18.73;;
26806;SDS011;14380;49.910;6.792;2022-12-10T06:01:39;30.13;;;17.77;;
26806;SDS011;14380;49.910;6.792;2022-12-10T06:04:06;30.73;;;18.10;;
26806;SDS011;14380;49.910;6.792;2022-12-10T06:06:34;33.55;;;19.90;;
26806;SDS011;14380;49.910;6.792;2022-12-10T06:09:03;32.95;;;20.73;;
26806;SDS011;14380;49.910;6.792;2022-12-10T06:11:30;34.63;;;19.30;;
26806;SDS011;14380;49.910;6.792;2022-12-10T06:13:57;31.77;;;18.63;;
26806;SDS011;14380;49.910;6.792;2022-12-10T06:16:24;32.70;;;18.77;;
26806;SDS011;14380;49.910;6.792;2022-12-10T06:18:54;35.67;;;20.70;;
26806;SDS011;14380;49.910;6.792;2022-12-10T06:21:21;34.45;;;20.27;;
26806;SDS011;14380;49.910;6.792;2022-12-10T06:23:48;36.63;;;20.52;;
26806;SDS011;14380;49.910;6.792;2022-12-10T06:26:17;38.08;;;21.10;;
26806;SDS011;14380;49.910;6.792;2022-12-10T06:28:44;36.53;;;21.00;;
26806;SDS011;14380;49.910;6.792;2022-12-10T06:31:12;32.28;;;19.65;;
26806;SDS011;14380;49.910;6.792;2022-12-10T06:33:39;35.35;;;19.67;;
26806;SDS011;14380;49.910;6.792;2022-12-10T06:36:09;33.25;;;19.85;;
26806;SDS011;14380;49.910;6.792;2022-12-10T06:38:37;34.33;;;19.83;;
26806;SDS011;14380;49.910;6.792;2022-12-10T06:41:04;35.55;;;19.63;;
26806;SDS011;14380;49.910;6.792;2022-12-10T06:43:32;33.28;;;19.70;;
26806;SDS011;14380;49.910;6.792;2022-12-10T06:46:03;41.45;;;21.95;;
26806;SDS011;14380;49.910;6.792;2022-12-10T06:48:30;40.03;;;22.65;;
26806;SDS011;14380;49.910;6.792;2022-12-10T06:50:57;41.60;;;22.92;;
26806;SDS011;14380;49.910;6.792;2022-12-10T06:53:25;36.65;;;21.35;;
26806;SDS011;14380;49.910;6.792;2022-12-10T06:55:52;36.75;;;21.80;;
26806;SDS011;14380;49.910;6.792;2022-12-10T06:58:18;39.22;;;21.77;;
26806;SDS011;14380;49.910;6.792;2022-12-10T07:00:45;35.25;;;20.95;;
26806;SDS011;14380;49.910;6.792;2022-12-10T07:03:11;38.47;;;21.75;;
26806;SDS011;14380;49.910;6.792;2022-12-10T07:05:38;42.22;;;24.38;;
26806;SDS011;14380;49.910;6.792;2022-12-10T07:08:04;41.03;;;22.42;;
26806;SDS011;14380;49.910;6.792;2022-12-10T07:10:32;40.83;;;23.90;;
26806;SDS011;14380;49.910;6.792;2022-12-10T07:12:59;42.35;;;23.17;;
26806;SDS011;14380;49.910;6.792;2022-12-10T07:15:26;39.83;;;21.95;;
26806;SDS011;14380;49.910;6.792;2022-12-10T07:17:53;36.13;;;21.00;;
26806;SDS011;14380;49.910;6.792;2022-12-10T07:20:19;37.70;;;21.73;;
26806;SDS011;14380;49.910;6.792;2022-12-10T07:22:46;39.47;;;22.55;;
26806;SDS011;14380;49.910;6.792;2022-12-10T07:25:13;36.92;;;21.58;;
26806;SDS011;14380;49.910;6.792;2022-12-10T07:27:42;33.30;;;18.60;;
26806;SDS011;14380;49.910;6.792;2022-12-10T07:30:09;30.63;;;17.38;;
26806;SDS011;14380;49.910;6.792;2022-12-10T07:32:37;28.20;;;16.85;;
26806;SDS011;14380;49.910;6.792;2022-12-10T07:35:04;30.92;;;17.55;;
26806;SDS011;14380;49.910;6.792;2022-12-10T07:37:32;27.35;;;15.43;;
26806;SDS011;14380;49.910;6.792;2022-12-10T07:40:00;30.73;;;17.50;;
26806;SDS011;14380;49.910;6.792;2022-12-10T07:42:26;30.20;;;16.60;;
26806;SDS011;14380;49.910;6.792;2022-12-10T07:44:54;27.35;;;16.42;;
26806;SDS011;14380;49.910;6.792;2022-12-10T07:47:20;30.73;;;16.70;;
26806;SDS011;14380;49.910;6.792;2022-12-10T07:49:47;27.42;;;15.07;;
26806;SDS011;14380;49.910;6.792;2022-12-10T07:52:14;26.63;;;15.40;;
26806;SDS011;14380;49.910;6.792;2022-12-10T07:54:40;26.80;;;16.60;;
26806;SDS011;14380;49.910;6.792;2022-12-10T07:57:07;29.55;;;15.27;;
26806;SDS011;14380;49.910;6.792;2022-12-10T07:59:33;27.08;;;14.38;;
26806;SDS011;14380;49.910;6.792;2022-12-10T08:02:01;25.63;;;14.60;;
26806;SDS011;14380;49.910;6.792;2022-12-10T08:04:28;27.20;;;15.20;;
26806;SDS011;14380;49.910;6.792;2022-12-10T08:06:55;27.33;;;14.88;;
26806;SDS011;14380;49.910;6.792;2022-12-10T08:09:22;24.73;;;14.07;;
26806;SDS011;14380;49.910;6.792;2022-12-10T08:11:49;24.30;;;14.45;;
26806;SDS011;14380;49.910;6.792;2022-12-10T08:14:15;27.27;;;15.35;;
26806;SDS011;14380;49.910;6.792;2022-12-10T08:16:42;25.38;;;13.88;;
26806;SDS011;14380;49.910;6.792;2022-12-10T08:19:10;22.85;;;13.30;;
26806;SDS011;14380;49.910;6.792;2022-12-10T08:21:36;23.63;;;13.13;;
26806;SDS011;14380;49.910;6.792;2022-12-10T08:24:03;19.45;;;12.43;;
26806;SDS011;14380;49.910;6.792;2022-12-10T08:26:31;22.73;;;11.88;;
26806;SDS011;14380;49.910;6.792;2022-12-10T08:28:58;20.83;;;12.75;;
26806;SDS011;14380;49.910;6.792;2022-12-10T08:31:26;22.15;;;12.63;;
26806;SDS011;14380;49.910;6.792;2022-12-10T08:33:53;23.05;;;13.73;;
26806;SDS011;14380;49.910;6.792;2022-12-10T08:36:22;23.23;;;13.13;;
26806;SDS011;14380;49.910;6.792;2022-12-10T08:38:49;21.98;;;12.85;;
26806;SDS011;14380;49.910;6.792;2022-12-10T08:41:16;21.70;;;12.57;;
26806;SDS011;14380;49.910;6.792;2022-12-10T08:43:44;22.05;;;13.27;;
26806;SDS011;14380;49.910;6.792;2022-12-10T08:46:12;23.13;;;13.18;;
26806;SDS011;14380;49.910;6.792;2022-12-10T08:48:40;23.42;;;12.77;;
26806;SDS011;14380;49.910;6.792;2022-12-10T08:51:08;20.00;;;11.57;;
26806;SDS011;14380;49.910;6.792;2022-12-10T08:53:37;21.15;;;12.82;;
26806;SDS011;14380;49.910;6.792;2022-12-10T08:56:05;23.67;;;12.80;;
26806;SDS011;14380;49.910;6.792;2022-12-10T08:58:32;20.42;;;11.88;;
26806;SDS011;14380;49.910;6.792;2022-12-10T09:00:59;21.15;;;11.75;;
26806;SDS011;14380;49.910;6.792;2022-12-10T09:03:27;23.38;;;12.65;;
26806;SDS011;14380;49.910;6.792;2022-12-10T09:05:54;25.80;;;13.73;;
26806;SDS011;14380;49.910;6.792;2022-12-10T09:08:20;21.63;;;12.75;;
26806;SDS011;14380;49.910;6.792;2022-12-10T09:10:48;18.67;;;10.90;;
26806;SDS011;14380;49.910;6.792;2022-12-10T09:13:15;20.17;;;12.50;;
26806;SDS011;14380;49.910;6.792;2022-12-10T09:15:42;21.25;;;11.82;;
26806;SDS011;14380;49.910;6.792;2022-12-10T09:18:15;22.90;;;12.70;;
26806;SDS011;14380;49.910;6.792;2022-12-10T09:20:42;24.85;;;12.07;;
26806;SDS011;14380;49.910;6.792;2022-12-10T09:23:08;20.13;;;11.93;;
26806;SDS011;14380;49.910;6.792;2022-12-10T09:25:35;26.08;;;13.50;;
26806;SDS011;14380;49.910;6.792;2022-12-10T09:28:03;23.58;;;12.85;;
26806;SDS011;14380;49.910;6.792;2022-12-10T09:30:29;23.35;;;12.90;;
26806;SDS011;14380;49.910;6.792;2022-12-10T09:32:56;21.75;;;11.82;;
26806;SDS011;14380;49.910;6.792;2022-12-10T09:35:23;21.33;;;12.05;;
26806;SDS011;14380;49.910;6.792;2022-12-10T09:37:50;19.63;;;12.32;;
26806;SDS011;14380;49.910;6.792;2022-12-10T09:40:16;25.02;;;13.43;;
26806;SDS011;14380;49.910;6.792;2022-12-10T09:42:47;22.33;;;13.15;;
26806;SDS011;14380;49.910;6.792;2022-12-10T09:45:21;17.15;;;11.63;;
26806;SDS011;14380;49.910;6.792;2022-12-10T09:47:58;20.65;;;12.32;;
26806;SDS011;14380;49.910;6.792;2022-12-10T09:50:32;22.88;;;12.90;;
26806;SDS011;14380;49.910;6.792;2022-12-10T09:53:03;21.20;;;12.10;;
26806;SDS011;14380;49.910;6.792;2022-12-10T09:55:38;18.13;;;10.93;;
26806;SDS011;14380;49.910;6.792;2022-12-10T09:58:09;24.65;;;13.27;;
26806;SDS011;14380;49.910;6.792;2022-12-10T10:00:44;19.85;;;10.52;;
26806;SDS011;14380;49.910;6.792;2022-12-10T10:03:13;22.15;;;12.00;;
26806;SDS011;14380;49.910;6.792;2022-12-10T10:05:42;21.63;;;11.82;;
26806;SDS011;14380;49.910;6.792;2022-12-10T10:08:12;21.30;;;12.50;;
26806;SDS011;14380;49.910;6.792;2022-12-10T10:10:45;20.77;;;12.55;;
26806;SDS011;14380;49.910;6.792;2022-12-10T10:13:14;24.77;;;14.52;;
26806;SDS011;14380;49.910;6.792;2022-12-10T10:15:48;28.77;;;14.43;;
26806;SDS011;14380;49.910;6.792;2022-12-10T10:18:17;20.63;;;12.75;;
26806;SDS011;14380;49.910;6.792;2022-12-10T10:20:49;24.15;;;13.45;;
26806;SDS011;14380;49.910;6.792;2022-12-10T10:23:16;26.23;;;14.05;;
26806;SDS011;14380;49.910;6.792;2022-12-10T10:25:43;24.73;;;13.70;;
26806;SDS011;14380;49.910;6.792;2022-12-10T10:28:11;22.67;;;13.10;;
26806;SDS011;14380;49.910;6.792;2022-12-10T10:30:39;24.67;;;13.32;;
26806;SDS011;14380;49.910;6.792;2022-12-10T10:33:12;26.77;;;14.75;;
26806;SDS011;14380;49.910;6.792;2022-12-10T10:35:44;25.33;;;13.20;;
26806;SDS011;14380;49.910;6.792;2022-12-10T10:38:16;29.38;;;13.82;;
26806;SDS011;14380;49.910;6.792;2022-12-10T10:40:46;24.90;;;13.07;;
26806;SDS011;14380;49.910;6.792;2022-12-10T10:43:18;22.02;;;13.10;;
26806;SDS011;14380;49.910;6.792;2022-12-10T10:45:49;19.60;;;12.23;;
26806;SDS011;14380;49.910;6.792;2022-12-10T10:48:20;21.17;;;12.10;;
26806;SDS011;14380;49.910;6.792;2022-12-10T10:50:48;23.10;;;12.73;;
26806;SDS011;14380;49.910;6.792;2022-12-10T10:53:23;27.63;;;13.98;;
26806;SDS011;14380;49.910;6.792;2022-12-10T10:56:04;28.27;;;13.23;;
26806;SDS011;14380;49.910;6.792;2022-12-10T10:58:33;23.73;;;14.15;;
26806;SDS011;14380;49.910;6.792;2022-12-10T11:01:02;26.52;;;13.77;;
26806;SDS011;14380;49.910;6.792;2022-12-10T11:03:32;26.92;;;15.00;;
26806;SDS011;14380;49.910;6.792;2022-12-10T11:06:00;24.70;;;14.00;;
26806;SDS011;14380;49.910;6.792;2022-12-10T11:08:32;26.65;;;15.25;;
26806;SDS011;14380;49.910;6.792;2022-12-10T11:11:04;27.58;;;16.58;;
26806;SDS011;14380;49.910;6.792;2022-12-10T11:13:33;28.35;;;16.23;;
26806;SDS011;14380;49.910;6.792;2022-12-10T11:16:08;32.88;;;17.98;;
26806;SDS011;14380;49.910;6.792;2022-12-10T11:21:16;26.27;;;14.05;;
26806;SDS011;14380;49.910;6.792;2022-12-10T11:23:47;25.75;;;13.85;;
26806;SDS011;14380;49.910;6.792;2022-12-10T11:29:12;28.17;;;13.90;;
26806;SDS011;14380;49.910;6.792;2022-12-10T11:31:54;20.92;;;12.90;;
26806;SDS011;14380;49.910;6.792;2022-12-10T11:34:38;25.33;;;13.85;;
26806;SDS011;14380;49.910;6.792;2022-12-10T11:37:16;27.70;;;14.32;;
26806;SDS011;14380;49.910;6.792;2022-12-10T11:39:57;40.90;;;19.70;;
26806;SDS011;14380;49.910;6.792;2022-12-10T11:42:34;25.38;;;13.98;;
26806;SDS011;14380;49.910;6.792;2022-12-10T11:45:12;24.33;;;14.05;;
26806;SDS011;14380;49.910;6.792;2022-12-10T11:47:46;25.95;;;15.38;;
26806;SDS011;14380;49.910;6.792;2022-12-10T11:50:39;30.63;;;17.60;;
26806;SDS011;14380;49.910;6.792;2022-12-10T11:53:15;29.67;;;16.60;;
26806;SDS011;14380;49.910;6.792;2022-12-10T11:55:58;26.50;;;15.20;;
26806;SDS011;14380;49.910;6.792;2022-12-10T11:58:40;26.60;;;14.98;;
26806;SDS011;14380;49.910;6.792;2022-12-10T12:01:21;27.92;;;14.73;;
26806;SDS011;14380;49.910;6.792;2022-12-10T12:04:01;22.92;;;13.65;;
26806;SDS011;14380;49.910;6.792;2022-12-10T12:06:48;22.92;;;14.13;;
26806;SDS011;14380;49.910;6.792;2022-12-10T12:09:25;24.45;;;13.98;;
26806;SDS011;14380;49.910;6.792;2022-12-10T12:12:05;24.55;;;13.90;;
26806;SDS011;14380;49.910;6.792;2022-12-10T12:14:43;29.23;;;13.80;;
26806;SDS011;14380;49.910;6.792;2022-12-10T12:17:16;24.80;;;14.48;;
26806;SDS011;14380;49.910;6.792;2022-12-10T12:19:49;19.83;;;13.60;;
26806;SDS011;14380;49.910;6.792;2022-12-10T12:22:23;20.05;;;12.07;;
26806;SDS011;14380;49.910;6.792;2022-12-10T12:24:52;24.73;;;13.48;;
26806;SDS011;14380;49.910;6.792;2022-12-10T12:27:23;19.65;;;12.43;;
26806;SDS011;14380;49.910;6.792;2022-12-10T12:29:57;21.58;;;13.05;;
26806;SDS011;14380;49.910;6.792;2022-12-10T12:32:29;20.73;;;13.57;;
26806;SDS011;14380;49.910;6.792;2022-12-10T12:35:01;23.48;;;14.07;;
26806;SDS011;14380;49.910;6.792;2022-12-10T12:37:35;25.30;;;14.13;;
26806;SDS011;14380;49.910;6.792;2022-12-10T12:40:09;20.27;;;13.38;;
26806;SDS011;14380;49.910;6.792;2022-12-10T12:42:41;21.90;;;13.88;;
26806;SDS011;14380;49.910;6.792;2022-12-10T12:45:14;24.50;;;14.35;;
26806;SDS011;14380;49.910;6.792;2022-12-10T12:47:48;22.85;;;13.73;;
26806;SDS011;14380;49.910;6.792;2022-12-10T12:50:24;23.83;;;13.75;;
26806;SDS011;14380;49.910;6.792;2022-12-10T12:52:56;26.13;;;14.25;;
26806;SDS011;14380;49.910;6.792;2022-12-10T12:55:26;24.33;;;14.82;;
26806;SDS011;14380;49.910;6.792;2022-12-10T12:58:01;24.30;;;14.65;;
26806;SDS011;14380;49.910;6.792;2022-12-10T13:00:37;25.08;;;13.52;;
26806;SDS011;14380;49.910;6.792;2022-12-10T13:03:17;22.55;;;13.07;;
26806;SDS011;14380;49.910;6.792;2022-12-10T13:05:52;23.02;;;13.77;;
26806;SDS011;14380;49.910;6.792;2022-12-10T13:08:24;20.35;;;13.68;;
26806;SDS011;14380;49.910;6.792;2022-12-10T13:10:56;24.33;;;14.02;;
26806;SDS011;14380;49.910;6.792;2022-12-10T13:13:27;24.08;;;14.18;;
26806;SDS011;14380;49.910;6.792;2022-12-10T13:19:22;20.63;;;12.90;;
26806;SDS011;14380;49.910;6.792;2022-12-10T13:21:58;18.77;;;12.18;;
26806;SDS011;14380;49.910;6.792;2022-12-10T13:24:45;22.60;;;13.52;;
26806;SDS011;14380;49.910;6.792;2022-12-10T13:27:28;26.20;;;15.80;;
26806;SDS011;14380;49.910;6.792;2022-12-10T13:29:59;24.42;;;13.90;;
26806;SDS011;14380;49.910;6.792;2022-12-10T13:32:41;21.38;;;13.88;;
26806;SDS011;14380;49.910;6.792;2022-12-10T13:35:18;22.60;;;15.00;;
26806;SDS011;14380;49.910;6.792;2022-12-10T13:37:54;22.38;;;13.50;;
26806;SDS011;14380;49.910;6.792;2022-12-10T13:40:26;23.23;;;14.75;;
26806;SDS011;14380;49.910;6.792;2022-12-10T13:43:23;22.25;;;13.20;;
26806;SDS011;14380;49.910;6.792;2022-12-10T13:46:22;23.35;;;14.10;;
26806;SDS011;14380;49.910;6.792;2022-12-10T13:48:52;23.60;;;15.32;;
26806;SDS011;14380;49.910;6.792;2022-12-10T13:51:30;26.75;;;15.52;;
26806;SDS011;14380;49.910;6.792;2022-12-10T13:54:21;25.17;;;15.63;;
26806;SDS011;14380;49.910;6.792;2022-12-10T13:57:26;22.42;;;13.18;;
26806;SDS011;14380;49.910;6.792;2022-12-10T14:00:08;23.63;;;13.32;;
26806;SDS011;14380;49.910;6.792;2022-12-10T14:05:55;21.85;;;12.82;;
26806;SDS011;14380;49.910;6.792;2022-12-10T14:08:40;19.25;;;12.48;;
26806;SDS011;14380;49.910;6.792;2022-12-10T14:11:20;22.60;;;13.60;;
26806;SDS011;14380;49.910;6.792;2022-12-10T14:13:51;27.70;;;14.05;;
26806;SDS011;14380;49.910;6.792;2022-12-10T14:16:23;22.90;;;13.20;;
26806;SDS011;14380;49.910;6.792;2022-12-10T14:18:51;17.08;;;11.38;;
26806;SDS011;14380;49.910;6.792;2022-12-10T14:21:21;23.35;;;13.35;;
26806;SDS011;14380;49.910;6.792;2022-12-10T14:23:49;24.80;;;13.40;;
26806;SDS011;14380;49.910;6.792;2022-12-10T14:26:17;25.00;;;16.27;;
26806;SDS011;14380;49.910;6.792;2022-12-10T14:28:45;53.28;;;39.13;;
26806;SDS011;14380;49.910;6.792;2022-12-10T14:31:15;27.58;;;15.95;;
26806;SDS011;14380;49.910;6.792;2022-12-10T14:33:44;26.48;;;14.98;;
26806;SDS011;14380;49.910;6.792;2022-12-10T14:36:23;28.23;;;14.63;;
26806;SDS011;14380;49.910;6.792;2022-12-10T14:38:53;28.48;;;18.02;;
26806;SDS011;14380;49.910;6.792;2022-12-10T14:41:20;26.45;;;15.13;;
26806;SDS011;14380;49.910;6.792;2022-12-10T14:43:49;24.92;;;15.52;;
26806;SDS011;14380;49.910;6.792;2022-12-10T14:46:20;31.33;;;16.60;;
26806;SDS011;14380;49.910;6.792;2022-12-10T14:48:50;26.20;;;14.70;;
26806;SDS011;14380;49.910;6.792;2022-12-10T14:51:18;23.05;;;13.85;;
26806;SDS011;14380;49.910;6.792;2022-12-10T14:53:47;25.33;;;14.80;;
26806;SDS011;14380;49.910;6.792;2022-12-10T14:56:16;31.00;;;17.67;;